Time;durP1;ratioP1;P1;durP2;ratioP2;P2;SDS_P1;SDS_P2;PMS_P1;PMS_P2;Temp;Humidity;BMP_temperature;BMP_pressure;BME280_temperature;BME280_humidity;BME280_pressure;Samples;Min_cycle;Max_cycle;Signal;HPM_P1;HPM_P2
2021/09/25 00:03:58;;;;;;;18.80;3.78;;;;;;;20.87;59.22;101461.94;10484136;28;20040;-79
2021/09/25 00:08:59;;;;;;;5.90;3.47;;;;;;;20.95;59.91;101491.78;10500789;28;20396;-79
2021/09/25 00:13:59;;;;;;;7.72;3.90;;;;;;;19.67;58.86;101269.69;10501237;28;20075;-79
2021/09/25 00:19:00;;;;;;;12.95;4.50;;;;;;;21.11;59.17;101496.41;10499782;28;20032;-80
2021/09/25 00:24:00;;;;;;;13.15;3.50;;;;;;;21.06;59.26;101490.03;10499282;28;20033;-79
2021/09/25 00:29:01;;;;;;;9.93;4.10;;;;;;;21.08;59.37;101487.84;10482976;28;20025;-80
2021/09/25 00:34:01;;;;;;;9.45;3.95;;;;;;;20.95;59.57;101491.78;10500755;28;20037;-79
2021/09/25 00:39:02;;;;;;;13.50;3.55;;;;;;;20.64;60.00;101493.22;10499552;28;20082;-80
2021/09/25 00:44:02;;;;;;;13.25;5.65;;;;;;;20.64;59.93;101491.31;10498819;28;20119;-81
2021/09/25 00:49:02;;;;;;;13.85;4.38;;;;;;;20.80;59.15;101497.88;10499643;28;20063;-79
2021/09/25 00:54:03;;;;;;;7.60;3.13;;;;;;;20.64;59.38;101487.72;10498568;28;20043;-79
2021/09/25 00:59:03;;;;;;;20.80;5.30;;;;;;;20.65;59.48;101506.72;10499589;28;20068;-79
2021/09/25 01:04:04;;;;;;;5.70;4.00;;;;;;;20.67;58.76;101500.97;10498125;28;20119;-79
2021/09/25 01:09:05;;;;;;;10.80;4.32;;;;;;;19.36;59.26;101295.75;10498451;28;20036;-80
2021/09/25 01:14:05;;;;;;;13.95;3.85;;;;;;;20.65;58.80;101503.16;10497707;28;20025;-79
2021/09/25 01:19:06;;;;;;;12.50;5.07;;;;;;;20.33;60.27;101494.59;10481103;28;20032;-80
2021/09/25 01:24:06;;;;;;;9.82;5.03;;;;;;;20.39;59.49;101491.69;10499258;28;20119;-80
2021/09/25 01:29:06;;;;;;;6.82;4.50;;;;;;;20.03;60.00;101475.63;10498669;28;20472;-79
2021/09/25 01:34:07;;;;;;;15.25;5.95;;;;;;;20.36;59.79;101488.59;10498127;28;20032;-79
2021/09/25 01:39:07;;;;;;;12.70;4.95;;;;;;;20.32;59.15;101526.75;10498800;28;20076;-79
2021/09/25 01:44:08;;;;;;;10.50;6.55;;;;;;;19.77;60.97;101455.88;10498488;28;20551;-79
2021/09/25 01:49:08;;;;;;;8.57;5.22;;;;;;;20.12;60.59;101488.72;10480143;28;20110;-80
2021/09/25 01:54:08;;;;;;;8.43;5.80;;;;;;;20.23;60.42;101487.00;10498416;28;20442;-79
2021/09/25 01:59:09;;;;;;;11.65;6.05;;;;;;;20.39;59.49;101485.34;10497772;28;20040;-79
2021/09/25 02:04:09;;;;;;;14.82;6.63;;;;;;;19.98;59.48;101437.88;10496936;28;20370;-79
2021/09/25 02:09:09;;;;;;;13.20;5.70;;;;;;;20.22;59.62;101493.56;10480479;28;20036;-80
2021/09/25 02:14:10;;;;;;;5.75;5.18;;;;;;;19.89;59.74;101439.34;10497409;28;20028;-80
2021/09/25 02:19:10;;;;;;;18.95;6.10;;;;;;;19.45;60.01;101353.88;10498132;28;20039;-79
2021/09/25 02:24:12;;;;;;;10.68;5.95;;;;;;;19.55;59.97;101370.53;10499055;28;20032;-80
2021/09/25 02:29:13;;;;;;;7.93;4.70;;;;;;;20.08;59.99;101462.81;10497942;28;20116;-81
2021/09/25 02:34:13;;;;;;;8.30;4.95;;;;;;;20.14;60.58;101486.56;10496456;28;20043;-79
2021/09/25 02:39:13;;;;;;;4.93;4.22;;;;;;;19.58;60.08;101400.25;10498575;28;20040;-79
2021/09/25 02:44:14;;;;;;;5.63;5.05;;;;;;;20.15;59.88;101482.72;10497097;28;20500;-79
2021/09/25 02:49:15;;;;;;;6.05;5.25;;;;;;;19.06;60.43;101296.00;10497969;28;20056;-80
2021/09/25 02:54:16;;;;;;;12.45;6.07;;;;;;;20.17;60.43;101475.06;10496838;28;20070;-79
2021/09/25 02:59:16;;;;;;;8.18;5.05;;;;;;;20.23;60.50;101470.50;10479596;28;20064;-79
2021/09/25 03:04:17;;;;;;;11.77;6.53;;;;;;;20.09;59.87;101456.22;10505740;28;20085;-80
2021/09/25 03:09:17;;;;;;;9.75;5.85;;;;;;;19.92;60.32;101430.63;10487789;28;20480;-79
2021/09/25 03:14:17;;;;;;;11.43;6.35;;;;;;;20.27;60.16;101476.34;10502186;28;20063;-80
2021/09/25 03:19:18;;;;;;;10.95;6.32;;;;;;;20.11;61.31;101478.81;10503667;28;20460;-80
2021/09/25 03:24:18;;;;;;;11.88;6.15;;;;;;;19.83;60.91;101454.91;10504669;28;20227;-79
2021/09/25 03:29:19;;;;;;;18.65;8.50;;;;;;;20.19;61.13;101480.31;10485167;28;20033;-80
2021/09/25 03:34:19;;;;;;;14.38;6.80;;;;;;;20.30;60.44;101475.84;10485317;28;20040;-79
2021/09/25 03:39:19;;;;;;;15.57;7.28;;;;;;;20.17;61.22;101479.75;10503222;28;20045;-79
2021/09/25 03:44:20;;;;;;;10.93;7.18;;;;;;;19.58;61.61;101371.97;10502436;28;20044;-79
2021/09/25 03:49:20;;;;;;;13.65;7.15;;;;;;;20.23;60.95;101473.25;10484779;28;20028;-79
2021/09/25 03:54:21;;;;;;;13.85;8.07;;;;;;;20.23;61.32;101481.50;10484424;28;20036;-79
2021/09/25 03:59:21;;;;;;;18.00;8.82;;;;;;;20.12;61.07;101477.72;10502225;28;20478;-80
2021/09/25 04:04:21;;;;;;;12.05;8.43;;;;;;;19.77;61.62;101416.59;10501777;28;20529;-79
2021/09/25 04:09:22;;;;;;;19.67;9.95;;;;;;;19.15;61.39;101316.50;10501509;28;20028;-79
2021/09/25 04:14:23;;;;;;;16.33;10.30;;;;;;;19.91;61.67;101439.94;10501079;28;20465;-80
2021/09/25 04:19:23;;;;;;;22.73;9.05;;;;;;;20.27;61.54;101481.84;10501066;28;20105;-80
2021/09/25 04:24:24;;;;;;;26.27;10.80;;;;;;;19.88;61.19;101418.47;10501089;28;20044;-79
2021/09/25 04:29:24;;;;;;;16.92;10.88;;;;;;;20.06;61.38;101434.72;10483414;28;20033;-80
2021/09/25 04:34:25;;;;;;;20.10;11.60;;;;;;;20.24;61.04;101460.31;10500798;28;20071;-79
2021/09/25 04:39:25;;;;;;;17.40;10.93;;;;;;;20.29;60.90;101457.66;10500728;28;20439;-79
2021/09/25 04:44:25;;;;;;;21.80;11.95;;;;;;;20.08;61.36;101429.81;10500015;28;20032;-80
2021/09/25 04:49:26;;;;;;;21.15;11.45;;;;;;;19.80;61.19;101389.44;10499989;28;20044;-79
2021/09/25 04:54:26;;;;;;;21.70;11.98;;;;;;;20.44;61.21;101471.66;10499244;28;20036;-79
2021/09/25 04:59:27;;;;;;;19.08;12.57;;;;;;;19.82;61.34;101405.69;10499302;28;20457;-80
2021/09/25 05:04:27;;;;;;;30.23;11.32;;;;;;;20.44;61.08;101482.69;10498078;28;20082;-79
2021/09/25 05:09:28;;;;;;;21.48;11.15;;;;;;;20.38;60.83;101467.16;10499700;28;20127;-79
2021/09/25 05:14:28;;;;;;;23.13;12.65;;;;;;;20.53;60.83;101475.72;10498793;28;20036;-80
2021/09/25 05:19:28;;;;;;;18.40;13.80;;;;;;;20.47;61.14;101482.19;10481553;28;20067;-79
2021/09/25 05:24:29;;;;;;;17.30;12.18;;;;;;;20.37;61.74;101487.50;10499817;28;20047;-79
2021/09/25 05:29:29;;;;;;;21.20;11.52;;;;;;;20.41;61.66;101485.91;10465541;28;20040;-79
2021/09/25 05:34:30;;;;;;;24.67;13.63;;;;;;;20.36;61.26;101483.09;10482126;28;20037;-79
2021/09/25 05:39:31;;;;;;;21.00;12.52;;;;;;;20.27;61.84;101479.91;10481257;28;20484;-79
2021/09/25 05:44:31;;;;;;;23.45;12.70;;;;;;;20.26;62.40;101486.50;10498602;28;20036;-79
2021/09/25 05:49:31;;;;;;;22.15;13.27;;;;;;;18.24;62.59;101165.38;10499011;28;20481;-79
2021/09/25 05:54:32;;;;;;;28.23;14.02;;;;;;;20.12;63.25;101487.88;10498050;28;20044;-80
2021/09/25 05:59:33;;;;;;;29.27;15.20;;;;;;;20.08;63.55;101487.53;10497956;28;20135;-79
2021/09/25 06:04:36;;;;;;;26.73;15.18;;;;;;;19.96;63.73;101443.59;10481338;28;20033;-80
2021/09/25 06:09:36;;;;;;;34.85;16.80;;;;;;;20.15;63.41;101479.97;10498704;28;20033;-79
2021/09/25 06:14:37;;;;;;;35.85;16.15;;;;;;;20.17;62.89;101468.75;10479164;28;20082;-79
2021/09/25 06:19:37;;;;;;;34.83;15.23;;;;;;;20.44;63.07;101486.25;10496639;28;20032;-79
2021/09/25 06:24:38;;;;;;;36.67;15.90;;;;;;;20.44;62.85;101475.25;10497428;28;20071;-79
2021/09/25 06:29:39;;;;;;;36.80;14.52;;;;;;;20.45;62.11;101451.31;10497799;28;20052;-79
2021/09/25 06:34:39;;;;;;;34.55;18.33;;;;;;;20.36;63.12;101461.09;10496903;28;20029;-79
2021/09/25 06:39:40;;;;;;;35.92;18.45;;;;;;;20.48;63.29;101500.34;10504775;28;20052;-79
2021/09/25 06:44:40;;;;;;;37.03;17.00;;;;;;;20.63;62.79;101489.63;10504964;28;20045;-79
2021/09/25 06:49:41;;;;;;;60.53;19.52;;;;;;;20.76;62.77;101520.66;10504287;28;20121;-79
2021/09/25 06:54:41;;;;;;;33.65;17.63;;;;;;;20.26;63.21;101439.75;10505099;28;20048;-79
2021/09/25 06:59:41;;;;;;;52.55;21.65;;;;;;;20.74;63.29;101500.78;10505257;28;20036;-80
2021/09/25 07:04:42;;;;;;;36.45;18.13;;;;;;;20.86;62.88;101494.13;10486819;28;20047;-79
2021/09/25 07:09:42;;;;;;;45.15;21.13;;;;;;;20.79;62.66;101454.91;10503820;28;20056;-79
2021/09/25 07:14:43;;;;;;;39.97;20.70;;;;;;;21.12;62.03;101489.84;10503724;28;20040;-79
2021/09/25 07:19:43;;;;;;;36.85;21.52;;;;;;;20.59;62.11;101394.09;10485412;28;20029;-79
2021/09/25 07:24:43;;;;;;;43.35;18.15;;;;;;;;;;10503293;28;20432;-79
2021/09/25 07:29:44;;;;;;;38.40;19.50;;;;;;;21.37;61.46;101463.75;10503215;28;20041;-79
2021/09/25 07:34:44;;;;;;;37.00;19.08;;;;;;;22.07;60.75;101528.25;10503408;28;20047;-80
2021/09/25 07:39:45;;;;;;;40.35;19.67;;;;;;;22.14;60.54;101531.63;10502399;28;20068;-79
2021/09/25 07:44:45;;;;;;;39.30;17.58;;;;;;;22.18;60.51;101532.84;10503256;28;20070;-78
2021/09/25 07:49:45;;;;;;;31.48;15.95;;;;;;;22.48;59.78;101529.53;10502588;28;20033;-81
2021/09/25 07:54:46;;;;;;;30.35;16.50;;;;;;;22.61;59.67;101524.66;10501782;28;20044;-78
2021/09/25 07:59:46;;;;;;;45.05;19.30;;;;;;;22.92;58.82;101562.50;10501233;28;20400;-78
2021/09/25 08:04:47;;;;;;;35.95;15.82;;;;;;;22.82;58.75;101545.84;10500966;28;20045;-76
2021/09/25 08:09:47;;;;;;;33.25;15.40;;;;;;;21.57;59.48;101414.41;10485449;28;20103;-80
2021/09/25 08:14:47;;;;;;;26.20;15.45;;;;;;;22.44;59.81;101583.59;10501121;28;20045;-79
2021/09/25 08:19:48;;;;;;;33.25;18.77;;;;;;;22.61;59.40;101588.16;10501296;28;20058;-79
2021/09/25 08:24:48;;;;;;;31.85;16.60;;;;;;;22.69;59.43;101602.34;10503379;28;20044;-80
2021/09/25 08:29:49;;;;;;;43.65;16.65;;;;;;;22.79;58.86;101593.31;10484378;28;20472;-80
2021/09/25 08:34:49;;;;;;;32.60;17.63;;;;;;;23.03;58.46;101580.00;10482720;28;20036;-79
2021/09/25 08:39:49;;;;;;;33.80;18.15;;;;;;;23.05;58.24;101582.50;10500380;28;20135;-80
2021/09/25 08:44:51;;;;;;;37.83;18.60;;;;;;;23.09;58.19;101606.56;10482317;28;20068;-79
2021/09/25 08:49:51;;;;;;;41.70;18.85;;;;;;;22.89;58.96;101611.91;10482306;28;20024;-80
2021/09/25 08:54:52;;;;;;;37.35;19.60;;;;;;;23.27;58.35;101598.97;10499630;28;20040;-79
2021/09/25 08:59:52;;;;;;;34.78;16.85;;;;;;;22.98;57.64;101503.47;10498374;28;20131;-79
2021/09/25 09:04:54;;;;;;;34.58;18.77;;;;;;;23.67;56.72;101603.91;10500254;28;20493;-79
2021/09/25 09:09:54;;;;;;;31.70;17.58;;;;;;;24.39;55.99;101607.00;10497675;28;20043;-79
2021/09/25 09:14:55;;;;;;;34.45;17.08;;;;;;;24.58;54.92;101633.94;10497341;28;20499;-80
2021/09/25 09:19:56;;;;;;;30.08;17.52;;;;;;;23.58;54.67;101403.69;10497821;28;20040;-79
2021/09/25 09:24:56;;;;;;;47.35;21.85;;;;;;;24.70;54.90;101622.59;10497683;28;20035;-80
2021/09/25 09:30:13;;;;;;;27.95;17.10;;;;;;;25.39;53.98;101612.06;10480594;28;20498;-81
2021/09/25 09:35:18;;;;;;;37.20;19.85;;;;;;;25.82;52.13;101557.91;10472558;28;20033;-80
2021/09/25 09:40:18;;;;;;;34.65;18.92;;;;;;;26.28;51.24;101584.59;10497841;28;20499;-81
2021/09/25 09:45:28;;;;;;;28.58;18.35;;;;;;;25.59;51.31;101553.81;10499182;28;20047;-80
2021/09/25 09:50:29;;;;;;;42.55;19.02;;;;;;;25.25;53.02;101593.25;10498971;28;20060;-81
2021/09/25 09:55:30;;;;;;;32.78;19.02;;;;;;;25.27;53.00;101601.28;10498484;28;20075;-75
2021/09/25 10:00:31;;;;;;;36.05;21.13;;;;;;;24.95;53.61;101612.63;10499909;28;20473;-80
2021/09/25 10:05:32;;;;;;;25.77;17.60;;;;;;;24.57;54.59;101623.97;10500011;28;20033;-80
2021/09/25 10:10:32;;;;;;;37.00;19.48;;;;;;;24.54;54.68;101626.44;10501482;28;20427;-81
2021/09/25 10:15:32;;;;;;;33.17;19.10;;;;;;;23.96;55.37;101571.16;10426996;28;20049;-81
2021/09/25 10:20:33;;;;;;;28.48;19.98;;;;;;;24.13;55.09;101559.88;10509274;28;20376;-81
2021/09/25 10:25:34;;;;;;;28.48;17.27;;;;;;;23.87;55.32;101526.59;10490225;28;20054;-82
2021/09/25 10:30:35;;;;;;;30.45;19.90;;;;;;;24.62;54.70;101617.59;10490675;28;20082;-82
2021/09/25 10:35:35;;;;;;;30.67;18.77;;;;;;;24.85;54.55;101612.63;10508679;28;20028;-81
2021/09/25 10:40:37;;;;;;;33.03;19.10;;;;;;;25.11;53.63;101613.47;10512720;28;20056;-83
2021/09/25 10:45:38;;;;;;;37.80;21.67;;;;;;;25.12;53.74;101620.69;10516805;28;20075;-83
2021/09/25 10:50:41;;;;;;;40.20;24.95;;;;;;;24.73;53.84;101563.88;10495443;28;20101;-82
2021/09/25 10:55:43;;;;;;;46.85;24.27;;;;;;;23.60;54.43;101402.31;10512641;28;20036;-82
2021/09/25 11:00:47;;;;;;;41.80;24.38;;;;;;;25.29;53.40;101621.25;10511268;28;20090;-82
2021/09/25 11:06:03;;;;;;;41.20;26.23;;;;;;;25.13;53.39;101589.94;10510138;28;20490;-82
2021/09/25 11:11:11;;;;;;;48.25;24.70;;;;;;;24.06;52.53;101304.78;10504072;28;20048;-82
2021/09/25 11:16:11;;;;;;;53.20;28.27;;;;;;;25.18;52.65;101553.91;10487506;28;20038;-82
2021/09/25 11:21:12;;;;;;;49.00;27.35;;;;;;;25.43;52.61;101560.50;10506823;28;20033;-82
2021/09/25 11:26:13;;;;;;;37.78;26.73;;;;;;;25.81;52.21;101608.13;10510805;28;20426;-82
2021/09/25 11:31:13;;;;;;;46.25;25.63;;;;;;;24.03;51.66;101333.00;10508669;28;20041;-82
2021/09/25 11:36:14;;;;;;;41.13;24.50;;;;;;;25.82;51.99;101569.00;10496218;28;20036;-83
2021/09/25 11:41:15;;;;;;;34.90;25.67;;;;;;;26.09;51.55;101590.78;10511690;28;20431;-82
2021/09/25 11:46:15;;;;;;;42.50;26.95;;;;;;;25.41;51.20;101508.09;10506680;28;20043;-83
2021/09/25 11:51:21;;;;;;;33.05;24.42;;;;;;;25.97;51.72;101568.94;10487077;28;20052;-82
2021/09/25 11:56:27;;;;;;;39.13;22.63;;;;;;;25.56;51.39;101504.44;10485570;28;20036;-81
2021/09/25 12:01:35;;;;;;;37.08;23.70;;;;;;;26.21;51.20;101543.25;10485660;28;20403;-82
2021/09/25 12:06:35;;;;;;;38.72;24.17;;;;;;;25.60;50.21;101446.47;10500401;28;20059;-79
2021/09/25 12:11:36;;;;;;;31.27;18.95;;;;;;;27.07;49.99;101580.69;10489449;28;20112;-80
2021/09/25 12:16:36;;;;;;;24.85;19.42;;;;;;;26.94;49.28;101584.13;10425474;28;20044;-79
2021/09/25 12:21:37;;;;;;;24.80;19.08;;;;;;;26.84;48.77;101511.97;10442226;28;20041;-82
2021/09/25 12:26:45;;;;;;;25.55;19.35;;;;;;;25.87;47.97;101373.91;10480555;28;20085;-82
2021/09/25 12:31:46;;;;;;;22.08;17.10;;;;;;;27.45;48.56;101555.84;10484196;28;20498;-82
2021/09/25 12:36:48;;;;;;;25.35;18.77;;;;;;;27.95;46.72;101575.88;10481827;28;20060;-79
2021/09/25 12:41:50;;;;;;;21.95;16.85;;;;;;;27.77;47.14;101521.00;10481958;28;20031;-79
2021/09/25 12:46:57;;;;;;;30.95;18.13;;;;;;;27.95;47.41;101525.78;10498498;28;20077;-78
2021/09/25 12:52:00;;;;;;;22.67;17.10;;;;;;;26.56;47.26;101355.28;10481975;28;20090;-79
2021/09/25 12:57:02;;;;;;;33.42;18.17;;;;;;;26.39;47.36;101395.41;10479902;28;20029;-78
2021/09/25 13:02:11;;;;;;;26.65;16.27;;;;;;;27.34;48.07;101549.56;10499865;28;20050;-81
2021/09/25 13:07:11;;;;;;;17.88;13.30;;;;;;;26.56;48.53;101500.53;10485331;28;20043;-83
2021/09/25 13:12:16;;;;;;;21.48;15.88;;;;;;;27.53;48.40;101552.41;10499634;28;20361;-82
2021/09/25 13:17:16;;;;;;;26.60;13.57;;;;;;;27.41;47.81;101524.19;10503849;28;20097;-83
2021/09/25 13:22:17;;;;;;;20.27;14.05;;;;;;;27.93;47.26;101516.06;10468837;28;20170;-79
2021/09/25 13:27:17;;;;;;;17.58;13.85;;;;;;;28.91;45.81;101514.22;10498538;28;20037;-79
2021/09/25 13:32:20;;;;;;;22.52;13.70;;;;;;;29.64;44.42;101472.66;10510551;28;20082;-82
2021/09/25 13:37:20;;;;;;;18.13;12.52;;;;;;;30.00;42.88;101444.75;10487274;28;20070;-83
2021/09/25 13:42:20;;;;;;;16.25;11.85;;;;;;;30.71;42.76;101517.63;10459582;28;20119;-80
2021/09/25 13:47:21;;;;;;;20.48;11.40;;;;;;;31.11;42.05;101511.28;10477812;28;20032;-78
2021/09/25 13:52:21;;;;;;;14.35;11.98;;;;;;;30.92;42.43;101486.34;10496743;28;20040;-80
2021/09/25 13:57:22;;;;;;;10.48;7.85;;;;;;;30.85;41.99;101508.34;10466834;28;20128;-79
2021/09/25 14:02:22;;;;;;;17.27;11.85;;;;;;;30.61;41.98;101508.69;10498106;28;20036;-80
2021/09/25 14:07:22;;;;;;;29.52;9.95;;;;;;;28.50;42.65;101364.47;10497849;28;20036;-81
2021/09/25 14:12:23;;;;;;;10.98;8.90;;;;;;;29.03;44.32;101493.41;10497335;28;20032;-79
2021/09/25 14:17:23;;;;;;;11.00;8.07;;;;;;;29.55;43.51;101485.69;10461671;28;20036;-80
2021/09/25 14:22:24;;;;;;;13.52;7.95;;;;;;;29.72;42.94;101449.59;10479128;28;20036;-76
2021/09/25 14:27:24;;;;;;;19.35;8.07;;;;;;;29.61;42.53;101439.78;10478895;28;20066;-77
2021/09/25 14:32:25;;;;;;;12.95;9.00;;;;;;;29.37;43.16;101477.09;10479161;28;20036;-79
2021/09/25 14:37:25;;;;;;;18.67;9.07;;;;;;;29.59;43.39;101473.56;10496753;28;20535;-78
2021/09/25 14:42:26;;;;;;;9.05;7.38;;;;;;;29.46;43.37;101429.78;10496455;28;20488;-80
2021/09/25 14:47:27;;;;;;;17.90;11.40;;;;;;;28.24;43.78;101411.44;10460883;28;20037;-78
2021/09/25 14:52:27;;;;;;;14.70;10.07;;;;;;;28.63;44.54;101467.91;10478457;28;20082;-79
2021/09/25 14:57:27;;;;;;;10.95;9.73;;;;;;;27.68;45.61;101469.88;10496918;28;20484;-79
2021/09/25 15:02:28;;;;;;;21.38;10.75;;;;;;;27.63;46.08;101478.28;10503300;28;20063;-78
2021/09/25 15:07:28;;;;;;;11.63;10.27;;;;;;;27.35;46.55;101455.84;10469159;28;20036;-78
2021/09/25 15:12:29;;;;;;;9.25;8.35;;;;;;;27.19;47.04;101459.94;10469238;28;20484;-79
2021/09/25 15:17:29;;;;;;;14.00;10.68;;;;;;;26.88;47.56;101466.63;10484964;28;20078;-79
2021/09/25 15:22:30;;;;;;;12.82;9.07;;;;;;;25.68;47.91;101280.25;10485750;28;20036;-79
2021/09/25 15:27:30;;;;;;;10.13;8.60;;;;;;;26.57;48.14;101443.03;10502366;28;20499;-79
2021/09/25 15:32:30;;;;;;;11.68;8.77;;;;;;;26.04;48.59;101418.75;10503445;28;20094;-79
2021/09/25 15:37:33;;;;;;;19.42;11.48;;;;;;;25.85;49.21;101451.06;10502696;28;20056;-79
2021/09/25 15:42:34;;;;;;;13.18;8.73;;;;;;;25.95;48.96;101457.38;10502596;28;20055;-80
2021/09/25 15:47:34;;;;;;;13.82;10.63;;;;;;;25.55;49.00;101407.66;10502966;28;20389;-79
2021/09/25 15:52:35;;;;;;;24.00;9.48;;;;;;;25.78;49.32;101420.81;10484236;28;20083;-79
2021/09/25 15:57:35;;;;;;;14.88;8.68;;;;;;;25.72;48.91;101431.13;10501364;28;20468;-79
2021/09/25 16:02:35;;;;;;;16.45;10.27;;;;;;;25.61;49.57;101473.06;10467794;28;20043;-79
2021/09/25 16:07:36;;;;;;;15.93;9.93;;;;;;;24.18;49.74;101298.94;10501776;28;20044;-79
2021/09/25 16:12:36;;;;;;;16.17;10.07;;;;;;;24.03;49.78;101225.91;10484037;28;20064;-79
2021/09/25 16:17:37;;;;;;;10.60;7.72;;;;;;;24.85;49.95;101388.25;10501258;28;20032;-79
2021/09/25 16:22:37;;;;;;;10.43;7.38;;;;;;;25.14;49.77;101441.91;10483626;28;20039;-79
2021/09/25 16:27:38;;;;;;;12.27;7.65;;;;;;;24.66;50.27;101374.16;10483507;28;20479;-78
2021/09/25 16:32:38;;;;;;;8.27;7.07;;;;;;;24.94;50.26;101430.88;10500664;28;20082;-78
2021/09/25 16:37:39;;;;;;;8.93;8.02;;;;;;;24.85;50.39;101430.63;10500159;28;20431;-79
2021/09/25 16:42:39;;;;;;;7.80;7.10;;;;;;;24.76;50.66;101430.38;10500123;28;20103;-79
2021/09/25 16:47:39;;;;;;;9.85;7.65;;;;;;;24.12;50.83;101354.28;10481380;28;20423;-79
2021/09/25 16:52:40;;;;;;;12.07;7.40;;;;;;;24.55;51.02;101439.81;10481770;28;20040;-79
2021/09/25 16:57:40;;;;;;;11.02;8.85;;;;;;;23.44;51.31;101285.34;10499554;28;20119;-78
2021/09/25 17:02:41;;;;;;;9.02;7.68;;;;;;;24.29;51.89;101442.56;10499153;28;20044;-79
2021/09/25 17:07:41;;;;;;;9.07;8.15;;;;;;;23.61;53.27;101384.63;10481199;28;20028;-78
2021/09/25 17:12:42;;;;;;;10.50;8.43;;;;;;;23.80;53.83;101428.38;10499719;28;20036;-78
2021/09/25 17:17:42;;;;;;;16.52;13.30;;;;;;;23.52;54.32;101426.91;10498747;28;20075;-78
2021/09/25 17:22:43;;;;;;;16.65;12.52;;;;;;;23.41;55.05;101448.97;10481087;28;20043;-78
2021/09/25 17:27:44;;;;;;;23.73;15.02;;;;;;;23.25;55.42;101458.28;10464071;28;20400;-78
2021/09/25 17:32:44;;;;;;;23.17;14.48;;;;;;;23.05;55.54;101436.94;10481343;28;20083;-77
2021/09/25 17:37:44;;;;;;;27.05;15.60;;;;;;;22.59;55.57;101380.56;10465298;28;20354;-78
2021/09/25 17:42:45;;;;;;;15.27;13.23;;;;;;;22.75;56.00;101440.31;10480857;28;20036;-79
2021/09/25 17:47:46;;;;;;;21.45;15.40;;;;;;;22.67;56.15;101452.66;10498303;28;20420;-78
2021/09/25 17:52:47;;;;;;;30.42;17.75;;;;;;;22.55;56.44;101462.22;10498083;28;20044;-78
2021/09/25 17:57:47;;;;;;;28.17;16.63;;;;;;;22.47;56.49;101467.16;10498657;28;20451;-78
2021/09/25 18:02:48;;;;;;;29.70;17.52;;;;;;;22.36;56.85;101465.38;10480799;28;20044;-78
2021/09/25 18:07:48;;;;;;;24.88;17.08;;;;;;;21.32;56.94;101309.41;10498120;28;20050;-78
2021/09/25 18:12:49;;;;;;;26.45;16.08;;;;;;;20.96;56.72;101297.94;10480253;28;20032;-79
2021/09/25 18:17:49;;;;;;;35.47;20.00;;;;;;;21.83;56.88;101431.22;10479777;28;20041;-78
2021/09/25 18:22:50;;;;;;;31.60;19.40;;;;;;;21.67;57.21;101421.94;10498372;28;20040;-78
2021/09/25 18:27:51;;;;;;;27.35;18.95;;;;;;;21.93;56.98;101469.91;10480220;28;20037;-78
2021/09/25 18:32:51;;;;;;;32.38;21.17;;;;;;;21.91;56.93;101476.78;10483275;28;20066;-78
2021/09/25 18:37:52;;;;;;;37.47;19.63;;;;;;;20.68;57.18;101299.00;10504906;28;20450;-78
2021/09/25 18:42:52;;;;;;;32.28;18.15;;;;;;;21.63;57.60;101456.63;10504748;28;20124;-78
2021/09/25 18:47:54;;;;;;;32.13;18.00;;;;;;;21.66;57.70;101474.56;10504648;28;20034;-77
2021/09/25 18:52:54;;;;;;;26.50;17.75;;;;;;;21.47;58.56;101452.00;10505246;28;20124;-78
2021/09/25 18:57:55;;;;;;;27.20;17.65;;;;;;;21.44;59.04;101463.53;10504162;28;20028;-78
2021/09/25 19:02:55;;;;;;;28.45;18.65;;;;;;;20.41;58.82;101307.94;10504683;28;20032;-77
2021/09/25 19:07:56;;;;;;;24.08;18.50;;;;;;;21.29;59.92;101469.69;10469990;28;20125;-78
2021/09/25 19:12:56;;;;;;;29.50;20.98;;;;;;;21.24;59.44;101473.19;10503952;28;20078;-79
2021/09/25 19:17:56;;;;;;;28.73;16.30;;;;;;;21.21;59.83;101467.34;10503433;28;20117;-78
2021/09/25 19:22:57;;;;;;;27.67;19.38;;;;;;;20.89;59.81;101434.97;10468986;28;20072;-77
2021/09/25 19:27:57;;;;;;;33.15;21.83;;;;;;;20.97;60.05;101464.00;10503301;28;20587;-78
2021/09/25 19:32:58;;;;;;;35.10;25.50;;;;;;;20.80;60.81;101470.34;10502918;28;20119;-78
2021/09/25 19:38:03;;;;;;;35.03;22.80;;;;;;;18.17;60.48;101038.59;10468811;28;20041;-78
2021/09/25 19:43:04;;;;;;;31.02;22.73;;;;;;;20.80;60.62;101483.28;10502840;28;20044;-77
2021/09/25 19:48:04;;;;;;;29.92;19.77;;;;;;;20.03;60.31;101382.97;10501938;28;20031;-78
2021/09/25 19:53:05;;;;;;;29.40;18.98;;;;;;;20.33;60.85;101431.34;10502423;28;20051;-77
2021/09/25 19:58:05;;;;;;;25.23;17.60;;;;;;;19.57;60.73;101329.09;10502181;28;20032;-78
2021/09/25 20:03:06;;;;;;;26.00;18.85;;;;;;;19.88;60.98;101378.06;10502328;28;20495;-77
2021/09/25 20:08:06;;;;;;;24.25;16.95;;;;;;;19.00;60.99;101259.38;10468017;28;20392;-78
2021/09/25 20:13:07;;;;;;;25.35;18.42;;;;;;;19.42;60.75;101354.34;10502160;28;20090;-77
2021/09/25 20:18:08;;;;;;;24.35;17.80;;;;;;;20.20;60.86;101468.25;10500580;28;20047;-78
2021/09/25 20:23:08;;;;;;;25.70;18.15;;;;;;;19.09;61.00;101311.16;10483503;28;20484;-79
2021/09/25 20:28:09;;;;;;;29.20;16.35;;;;;;;19.67;61.44;101415.31;10501848;28;20040;-78
2021/09/25 20:33:09;;;;;;;21.27;17.00;;;;;;;19.92;61.37;101475.44;10483387;28;20033;-78
2021/09/25 20:38:09;;;;;;;26.30;16.27;;;;;;;19.62;61.16;101450.91;10500435;28;20048;-78
2021/09/25 20:43:11;;;;;;;22.10;16.55;;;;;;;19.15;61.90;101398.03;10483245;28;20384;-78
2021/09/25 20:48:12;;;;;;;24.50;14.90;;;;;;;19.65;61.66;101477.91;10481737;28;20037;-78
2021/09/25 20:53:12;;;;;;;27.33;16.98;;;;;;;19.41;61.04;101426.84;10466637;28;20108;-78
2021/09/25 20:58:12;;;;;;;25.17;17.52;;;;;;;19.42;60.92;101475.19;10500013;28;20028;-77
2021/09/25 21:03:13;;;;;;;20.92;16.10;;;;;;;19.44;61.25;101468.41;10501021;28;20071;-78
2021/09/25 21:08:13;;;;;;;20.60;14.40;;;;;;;19.37;60.81;101499.81;10449581;28;20051;-78
2021/09/25 21:13:14;;;;;;;26.35;17.20;;;;;;;19.22;61.17;101465.44;10482981;28;20384;-78
2021/09/25 21:18:15;;;;;;;30.73;18.33;;;;;;;18.59;61.61;101367.41;10499798;28;20041;-78
2021/09/25 21:23:15;;;;;;;27.52;16.45;;;;;;;19.18;61.98;101461.53;10499289;28;20132;-78
2021/09/25 21:28:17;;;;;;;32.75;17.35;;;;;;;17.84;62.01;101250.25;10499494;28;20104;-78
2021/09/25 21:33:18;;;;;;;28.83;17.00;;;;;;;18.98;61.52;101439.94;10499464;28;20162;-77
2021/09/25 21:38:19;;;;;;;29.10;18.05;;;;;;;18.72;61.88;101407.47;10481275;28;20074;-78
2021/09/25 21:43:21;;;;;;;19.05;16.08;;;;;;;18.97;62.08;101445.69;10481612;28;20483;-78
2021/09/25 21:48:21;;;;;;;27.00;19.38;;;;;;;18.36;62.67;101363.59;10479598;28;20070;-77
2021/09/25 21:53:24;;;;;;;27.50;19.10;;;;;;;17.49;62.31;101241.97;10498219;28;20071;-78
2021/09/25 21:58:25;;;;;;;34.75;20.13;;;;;;;18.34;63.81;101412.34;10497164;28;20392;-77
2021/09/25 22:03:28;;;;;;;30.25;19.40;;;;;;;15.62;63.85;101029.53;10497729;28;20036;-77
2021/09/25 22:08:29;;;;;;;27.98;18.40;;;;;;;17.16;63.86;101200.34;10485549;28;20472;-78
2021/09/25 22:13:30;;;;;;;37.50;21.27;;;;;;;18.68;63.89;101441.97;10506164;28;20047;-77
2021/09/25 22:18:31;;;;;;;25.50;19.63;;;;;;;18.67;63.97;101430.16;10505106;28;20064;-78
2021/09/25 22:23:32;;;;;;;25.58;18.23;;;;;;;18.67;64.26;101441.13;10487831;28;20447;-77
2021/09/25 22:28:33;;;;;;;30.38;20.15;;;;;;;18.74;63.85;101430.91;10505595;28;20119;-77
2021/09/25 22:33:36;;;;;;;27.45;19.65;;;;;;;18.63;63.90;101423.44;10504994;28;20045;-79
2021/09/25 22:38:39;;;;;;;27.13;19.23;;;;;;;17.07;64.23;101155.25;10487730;28;20144;-78